Time;durP1;ratioP1;P1;durP2;ratioP2;P2;SDS_P1;SDS_P2;PMS_P1;PMS_P2;Temp;Humidity;BMP_temperature;BMP_pressure;BME280_temperature;BME280_humidity;BME280_pressure;Samples;Min_cycle;Max_cycle;Signal;HPM_P1;HPM_P2
2020/12/25 00:02:06;;;;;;;15.15;2.03;;;5.30;99.90;;;;;;5049999;28;20041;-38
2020/12/25 00:04:32;;;;;;;16.17;2.33;;;5.20;99.90;;;;;;5045713;28;20021;-38
2020/12/25 00:06:58;;;;;;;17.85;3.95;;;5.10;99.90;;;;;;5046269;28;20451;-37
2020/12/25 00:09:23;;;;;;;11.13;2.55;;;5.20;99.90;;;;;;5031719;28;20077;-37
2020/12/25 00:11:49;;;;;;;26.90;2.70;;;5.10;99.90;;;;;;5030084;28;20049;-38
2020/12/25 00:14:14;;;;;;;18.15;2.72;;;5.10;99.90;;;;;;5043397;28;20050;-38
2020/12/25 00:16:40;;;;;;;12.43;2.80;;;5.00;99.90;;;;;;5052274;28;20029;-37
2020/12/25 00:19:06;;;;;;;19.00;2.80;;;4.90;99.90;;;;;;5051044;28;20121;-38
2020/12/25 00:21:36;;;;;;;21.25;2.65;;;4.90;99.90;;;;;;5052416;28;20394;-38
2020/12/25 00:24:03;;;;;;;16.65;2.47;;;4.90;99.90;;;;;;5045965;28;20040;-38
2020/12/25 00:26:29;;;;;;;24.02;3.85;;;4.90;99.90;;;;;;5052006;28;20029;-38
2020/12/25 00:28:57;;;;;;;25.17;2.60;;;4.90;99.90;;;;;;5034084;28;20082;-37
2020/12/25 00:31:30;;;;;;;17.40;2.25;;;5.00;99.90;;;;;;5052583;28;20037;-37
2020/12/25 00:33:57;;;;;;;15.75;2.50;;;5.20;99.90;;;;;;5038885;28;20036;-38
2020/12/25 00:36:24;;;;;;;11.38;2.28;;;5.20;99.90;;;;;;5044037;28;20363;-37
2020/12/25 00:38:49;;;;;;;13.20;2.17;;;5.20;99.90;;;;;;5044707;28;20139;-38
2020/12/25 00:41:15;;;;;;;12.23;1.80;;;5.20;99.90;;;;;;5048951;28;20046;-37
2020/12/25 00:43:41;;;;;;;10.23;1.65;;;5.30;99.90;;;;;;5045511;28;20029;-38
2020/12/25 00:46:10;;;;;;;7.63;1.30;;;5.30;99.90;;;;;;5052455;28;20044;-37
2020/12/25 00:48:36;;;;;;;14.52;2.83;;;5.30;99.90;;;;;;5046985;28;20057;-38
2020/12/25 00:51:01;;;;;;;15.93;1.63;;;5.30;99.90;;;;;;5049785;28;20493;-38
2020/12/25 00:53:27;;;;;;;18.13;1.65;;;5.20;99.90;;;;;;5052377;28;20089;-38
2020/12/25 00:55:53;;;;;;;15.45;1.85;;;5.10;99.90;;;;;;5051490;28;20134;-38
2020/12/25 00:58:18;;;;;;;11.80;1.95;;;5.10;99.90;;;;;;5051947;28;20036;-38
2020/12/25 01:00:44;;;;;;;7.70;0.98;;;5.00;99.90;;;;;;5046939;28;20025;-38
2020/12/25 01:03:09;;;;;;;9.00;2.15;;;5.00;99.90;;;;;;5044292;28;20462;-38
2020/12/25 01:05:35;;;;;;;11.02;1.70;;;4.90;99.90;;;;;;5044177;28;20480;-38
2020/12/25 01:08:01;;;;;;;12.20;1.60;;;4.90;99.90;;;;;;5028971;28;20451;-36
2020/12/25 01:10:26;;;;;;;5.55;1.17;;;4.90;99.90;;;;;;5042031;28;20080;-36
2020/12/25 01:12:52;;;;;;;7.93;1.23;;;4.90;99.90;;;;;;5051347;28;20025;-36
2020/12/25 01:15:17;;;;;;;13.60;1.60;;;4.90;99.90;;;;;;5045329;28;20432;-36
2020/12/25 01:17:43;;;;;;;12.48;1.55;;;5.00;99.90;;;;;;5043159;28;20128;-36
2020/12/25 01:20:08;;;;;;;14.48;2.00;;;5.10;99.90;;;;;;5041873;28;20026;-38
2020/12/25 01:22:34;;;;;;;9.45;1.33;;;5.10;99.90;;;;;;5049842;28;20040;-37
2020/12/25 01:24:59;;;;;;;12.85;1.45;;;4.90;99.90;;;;;;5050302;28;20021;-37
2020/12/25 01:27:25;;;;;;;13.98;1.85;;;4.80;99.90;;;;;;5035746;28;20761;-37
2020/12/25 01:29:50;;;;;;;6.60;0.80;;;4.70;99.90;;;;;;5028228;28;20638;-36
2020/12/25 01:32:16;;;;;;;14.20;2.10;;;4.70;99.90;;;;;;5030532;28;20037;-38
2020/12/25 01:34:42;;;;;;;2.17;0.60;;;4.60;99.90;;;;;;5035664;28;20116;-37
2020/12/25 01:37:07;;;;;;;11.65;0.80;;;4.50;99.90;;;;;;5028181;28;20148;-37
2020/12/25 01:39:33;;;;;;;6.97;1.17;;;4.40;99.90;;;;;;5038231;28;20033;-37
2020/12/25 01:41:58;;;;;;;9.50;1.00;;;4.40;99.90;;;;;;5050666;28;20470;-38
2020/12/25 01:44:24;;;;;;;6.85;0.93;;;4.50;99.90;;;;;;5050123;28;20102;-38
2020/12/25 01:46:49;;;;;;;5.90;0.75;;;4.50;99.90;;;;;;5016808;28;20033;-38
2020/12/25 01:49:15;;;;;;;8.95;1.02;;;4.50;99.90;;;;;;5037244;28;20537;-38
2020/12/25 01:51:41;;;;;;;5.18;2.00;;;4.50;99.90;;;;;;5018067;28;20065;-37
2020/12/25 01:54:07;;;;;;;1.50;0.60;;;4.40;99.90;;;;;;5046026;28;20377;-38
2020/12/25 01:56:33;;;;;;;3.88;0.47;;;4.40;99.90;;;;;;5052049;28;20029;-38
2020/12/25 01:58:59;;;;;;;10.73;1.15;;;4.40;99.90;;;;;;5024726;28;20041;-37
2020/12/25 02:01:25;;;;;;;6.55;1.35;;;4.40;99.90;;;;;;5054080;28;20090;-38
2020/12/25 02:03:51;;;;;;;14.35;1.85;;;4.40;99.90;;;;;;5052068;28;20072;-38
2020/12/25 02:06:16;;;;;;;4.80;0.90;;;4.40;99.90;;;;;;5045682;28;20079;-38
2020/12/25 02:08:42;;;;;;;7.93;0.90;;;4.50;99.90;;;;;;5045066;28;20025;-38
2020/12/25 02:11:08;;;;;;;12.45;1.58;;;4.50;99.90;;;;;;5037542;28;20067;-38
2020/12/25 02:13:35;;;;;;;7.80;0.93;;;4.60;99.90;;;;;;5049346;28;20032;-37
2020/12/25 02:16:01;;;;;;;6.80;1.60;;;4.60;99.90;;;;;;5054210;28;20037;-37
2020/12/25 02:18:35;;;;;;;7.82;1.00;;;4.70;99.90;;;;;;5051128;28;20025;-37
2020/12/25 02:21:02;;;;;;;7.07;1.33;;;4.80;99.90;;;;;;5036998;28;20465;-37
2020/12/25 02:23:28;;;;;;;8.82;1.40;;;4.80;99.90;;;;;;5035402;28;20390;-38
2020/12/25 02:25:53;;;;;;;10.02;1.50;;;4.90;99.90;;;;;;5054179;28;20028;-38
2020/12/25 02:28:19;;;;;;;11.85;1.58;;;4.90;99.90;;;;;;5050803;28;20025;-38
2020/12/25 02:30:44;;;;;;;16.42;1.60;;;5.00;99.90;;;;;;5050499;28;20040;-38
2020/12/25 02:33:10;;;;;;;14.18;2.15;;;5.00;99.90;;;;;;5041184;28;20511;-39
2020/12/25 02:35:35;;;;;;;10.65;1.20;;;5.10;99.90;;;;;;5053663;28;20032;-38
2020/12/25 02:38:01;;;;;;;6.80;0.90;;;5.00;99.90;;;;;;5049511;28;20029;-38
2020/12/25 02:40:26;;;;;;;5.20;0.88;;;4.90;99.90;;;;;;5051673;28;20033;-38
2020/12/25 02:42:52;;;;;;;7.72;0.90;;;4.90;99.90;;;;;;5052299;28;20037;-38
2020/12/25 02:45:18;;;;;;;10.07;1.23;;;4.80;99.90;;;;;;5039333;28;20052;-38
2020/12/25 02:47:43;;;;;;;7.88;1.08;;;4.80;99.90;;;;;;5052264;28;20029;-38
2020/12/25 02:50:09;;;;;;;7.22;1.45;;;4.80;99.90;;;;;;5047077;28;20033;-38
2020/12/25 02:52:37;;;;;;;11.77;1.95;;;4.80;99.90;;;;;;5053688;28;20048;-37
2020/12/25 02:55:03;;;;;;;7.30;1.65;;;4.80;99.90;;;;;;5045081;28;20439;-38
2020/12/25 02:57:28;;;;;;;12.07;1.52;;;4.80;99.90;;;;;;5050551;28;20044;-38
2020/12/25 02:59:55;;;;;;;14.48;2.28;;;4.80;99.90;;;;;;5050728;28;20114;-38
2020/12/25 03:02:20;;;;;;;8.02;1.30;;;4.80;99.90;;;;;;5052502;28;20047;-39
2020/12/25 03:04:46;;;;;;;5.85;0.88;;;4.70;99.90;;;;;;5050160;28;20029;-38
2020/12/25 03:07:15;;;;;;;13.18;1.23;;;4.70;99.90;;;;;;5049617;28;20429;-37
2020/12/25 03:09:40;;;;;;;14.38;1.50;;;4.80;99.90;;;;;;5044877;28;20025;-38
2020/12/25 03:12:07;;;;;;;38.08;5.32;;;4.80;99.90;;;;;;5049740;28;20439;-38
2020/12/25 03:14:32;;;;;;;8.27;1.95;;;4.80;99.90;;;;;;5041062;28;20049;-38
2020/12/25 03:16:58;;;;;;;6.88;0.90;;;4.80;99.90;;;;;;5052694;28;20074;-38
2020/12/25 03:19:24;;;;;;;13.68;2.50;;;4.80;99.90;;;;;;5053114;28;20082;-38
2020/12/25 03:21:49;;;;;;;12.65;1.50;;;4.80;99.90;;;;;;5054070;28;20073;-37
2020/12/25 03:24:15;;;;;;;4.22;0.93;;;4.80;99.90;;;;;;5051905;28;20021;-38
2020/12/25 03:26:40;;;;;;;9.55;1.90;;;4.80;99.90;;;;;;5047289;28;20118;-37
2020/12/25 03:29:06;;;;;;;8.50;2.55;;;4.70;99.90;;;;;;5052442;28;20486;-37
2020/12/25 03:31:31;;;;;;;7.88;1.13;;;4.70;99.90;;;;;;5053782;28;20045;-38
2020/12/25 03:33:57;;;;;;;8.60;1.55;;;4.70;99.90;;;;;;5051883;28;20040;-38
2020/12/25 03:36:23;;;;;;;12.20;3.30;;;4.70;99.90;;;;;;5050274;28;20024;-38
2020/12/25 03:38:48;;;;;;;12.55;1.40;;;4.60;99.90;;;;;;5051674;28;20031;-38
2020/12/25 03:41:14;;;;;;;8.07;0.98;;;4.70;99.90;;;;;;5046557;28;20033;-38
2020/12/25 03:43:39;;;;;;;11.65;1.45;;;4.70;99.90;;;;;;5035457;28;20120;-38
2020/12/25 03:46:05;;;;;;;15.15;1.38;;;4.60;99.90;;;;;;5052110;28;20032;-37
2020/12/25 03:48:30;;;;;;;23.17;2.65;;;4.50;99.90;;;;;;5048446;28;20090;-38
2020/12/25 03:51:00;;;;;;;5.15;0.68;;;4.50;99.90;;;;;;5053775;28;20037;-38
2020/12/25 03:53:26;;;;;;;5.85;0.70;;;4.40;99.90;;;;;;5047773;28;20047;-38
2020/12/25 03:55:51;;;;;;;7.18;1.10;;;4.40;99.90;;;;;;5050998;28;20041;-38
2020/12/25 03:58:17;;;;;;;9.00;0.70;;;4.40;99.90;;;;;;5051557;28;20108;-38
2020/12/25 04:00:42;;;;;;;5.65;1.17;;;4.40;99.90;;;;;;5052807;28;20037;-38
2020/12/25 04:03:08;;;;;;;10.55;1.25;;;4.40;99.90;;;;;;5047946;28;20040;-38
2020/12/25 04:05:33;;;;;;;13.07;1.42;;;4.40;99.90;;;;;;5049944;28;20104;-38
2020/12/25 04:07:59;;;;;;;8.30;1.70;;;4.30;99.90;;;;;;5048273;28;20100;-37
2020/12/25 04:10:24;;;;;;;11.73;1.67;;;4.30;99.90;;;;;;5049315;28;20041;-38
2020/12/25 04:12:50;;;;;;;7.85;2.10;;;4.40;99.90;;;;;;5031709;28;20034;-38
2020/12/25 04:15:16;;;;;;;13.98;2.08;;;4.40;99.90;;;;;;5038452;28;20052;-40
2020/12/25 04:17:41;;;;;;;7.57;0.88;;;4.30;99.90;;;;;;5049450;28;20492;-38
2020/12/25 04:20:07;;;;;;;12.15;1.00;;;4.30;99.90;;;;;;5046759;28;20113;-38
2020/12/25 04:22:32;;;;;;;7.68;1.10;;;4.30;99.90;;;;;;5050794;28;20033;-38
2020/12/25 04:24:58;;;;;;;7.22;0.88;;;4.30;99.90;;;;;;5036159;28;20470;-38
2020/12/25 04:27:23;;;;;;;14.35;1.55;;;4.10;99.90;;;;;;5028728;28;20108;-38
2020/12/25 04:29:49;;;;;;;5.35;1.13;;;4.00;99.90;;;;;;5048659;28;20037;-38
2020/12/25 04:32:14;;;;;;;13.63;1.70;;;4.00;99.90;;;;;;5052368;28;20052;-38
2020/12/25 04:34:40;;;;;;;8.10;1.60;;;4.20;99.90;;;;;;5046319;28;20033;-38
2020/12/25 04:37:05;;;;;;;10.93;1.73;;;4.10;99.90;;;;;;5050706;28;20033;-38
2020/12/25 04:39:31;;;;;;;5.82;0.57;;;4.10;99.90;;;;;;5034953;28;20051;-38
2020/12/25 04:41:57;;;;;;;8.45;1.20;;;4.20;99.90;;;;;;5043554;28;20029;-38
2020/12/25 04:44:22;;;;;;;10.02;1.10;;;4.30;99.90;;;;;;5048158;28;20021;-37
2020/12/25 04:46:51;;;;;;;8.50;1.52;;;4.30;99.90;;;;;;5051680;28;20086;-37
2020/12/25 04:49:19;;;;;;;13.00;1.65;;;4.30;99.90;;;;;;5034102;28;20032;-40
2020/12/25 04:51:44;;;;;;;6.07;0.90;;;4.30;99.90;;;;;;5046130;28;20045;-38
2020/12/25 04:54:10;;;;;;;8.73;0.90;;;4.20;99.90;;;;;;5045890;28;20520;-38
2020/12/25 04:56:36;;;;;;;10.52;1.35;;;4.20;99.90;;;;;;5047995;28;20037;-36
2020/12/25 04:59:02;;;;;;;8.95;1.30;;;4.20;99.90;;;;;;5050604;28;20029;-38
2020/12/25 05:01:28;;;;;;;10.55;1.30;;;4.10;99.90;;;;;;5049519;28;20032;-38
2020/12/25 05:03:53;;;;;;;8.85;1.67;;;4.10;99.90;;;;;;5051190;28;20029;-38
2020/12/25 05:06:19;;;;;;;7.15;1.27;;;4.10;99.90;;;;;;5051122;28;20029;-38
2020/12/25 05:08:46;;;;;;;14.45;3.47;;;4.00;99.90;;;;;;5049586;28;20377;-38
2020/12/25 05:11:13;;;;;;;11.23;1.80;;;4.10;99.90;;;;;;5039033;28;20037;-38
2020/12/25 05:13:43;;;;;;;15.00;1.85;;;4.10;99.90;;;;;;5044749;28;20021;-37
2020/12/25 05:16:09;;;;;;;9.63;1.58;;;4.20;99.90;;;;;;5050494;28;20025;-38
2020/12/25 05:18:37;;;;;;;11.98;1.80;;;4.20;99.90;;;;;;5024203;28;20021;-38
2020/12/25 05:21:08;;;;;;;11.95;2.00;;;4.20;99.90;;;;;;5039045;28;20068;-38
2020/12/25 05:23:35;;;;;;;15.67;3.90;;;4.30;99.90;;;;;;5050642;28;20021;-38
2020/12/25 05:26:01;;;;;;;17.85;2.60;;;4.40;99.90;;;;;;5052211;28;20029;-37
2020/12/25 05:28:29;;;;;;;29.45;2.83;;;4.40;99.90;;;;;;5048953;28;20118;-38
2020/12/25 05:30:57;;;;;;;22.08;3.40;;;4.40;99.90;;;;;;5024784;28;20124;-38
2020/12/25 05:33:24;;;;;;;17.13;3.00;;;4.50;99.90;;;;;;5040026;28;20021;-39
2020/12/25 05:35:53;;;;;;;17.85;3.08;;;4.50;99.90;;;;;;5053289;28;20107;-37
2020/12/25 05:38:19;;;;;;;21.77;3.17;;;4.50;99.90;;;;;;5055465;28;20029;-38
2020/12/25 05:40:45;;;;;;;18.58;1.95;;;4.40;99.90;;;;;;5050923;28;20082;-37
2020/12/25 05:43:14;;;;;;;21.42;3.53;;;4.20;99.90;;;;;;5053264;28;20567;-37
2020/12/25 05:45:40;;;;;;;15.98;2.20;;;4.10;99.90;;;;;;5055558;28;20033;-38
2020/12/25 05:48:07;;;;;;;17.25;2.40;;;4.00;99.90;;;;;;5055405;28;20033;-37
2020/12/25 05:50:34;;;;;;;12.88;1.63;;;3.90;99.90;;;;;;5051329;28;20033;-38
2020/12/25 05:52:59;;;;;;;12.27;1.90;;;3.80;99.90;;;;;;5046532;28;20037;-37
2020/12/25 05:55:25;;;;;;;16.52;1.77;;;3.80;99.90;;;;;;5052354;28;20098;-39
2020/12/25 05:57:53;;;;;;;14.80;2.35;;;3.80;99.90;;;;;;5054326;28;20079;-38
2020/12/25 06:00:25;;;;;;;14.30;2.25;;;3.90;99.90;;;;;;5033121;28;20037;-37
2020/12/25 06:02:53;;;;;;;16.23;2.17;;;3.90;99.90;;;;;;5053123;28;20052;-36
2020/12/25 06:05:20;;;;;;;15.52;2.20;;;3.90;99.90;;;;;;5051196;28;20029;-37
2020/12/25 06:07:59;;;;;;;13.07;1.85;;;3.90;99.90;;;;;;5020249;28;20076;-38
2020/12/25 06:10:29;;;;;;;20.83;2.95;;;4.00;99.90;;;;;;5051863;28;20032;-38
2020/12/25 06:12:57;;;;;;;14.52;2.08;;;3.90;99.90;;;;;;5046675;28;20033;-37
2020/12/25 06:15:29;;;;;;;12.00;1.90;;;3.80;99.90;;;;;;5031534;28;20052;-38
2020/12/25 06:18:07;;;;;;;20.90;2.10;;;3.80;99.90;;;;;;5048474;28;20033;-38
2020/12/25 06:20:38;;;;;;;20.02;2.80;;;3.80;99.90;;;;;;5050823;28;20029;-37
2020/12/25 06:23:04;;;;;;;14.68;2.78;;;3.80;99.90;;;;;;5044963;28;20032;-38
2020/12/25 06:25:30;;;;;;;20.38;3.20;;;3.80;99.90;;;;;;5051282;28;20386;-38
2020/12/25 06:28:01;;;;;;;23.40;2.05;;;3.70;99.90;;;;;;5048105;28;20070;-38
2020/12/25 06:30:32;;;;;;;24.48;4.88;;;3.80;99.90;;;;;;5048996;28;20029;-38
2020/12/25 06:32:58;;;;;;;14.45;2.83;;;3.70;99.90;;;;;;5039541;28;20056;-38
2020/12/25 06:35:28;;;;;;;22.85;2.80;;;3.60;99.90;;;;;;5051169;28;20458;-38
2020/12/25 06:37:54;;;;;;;12.75;2.45;;;3.60;99.90;;;;;;5053270;28;20029;-38
2020/12/25 06:40:24;;;;;;;14.85;1.88;;;3.70;99.90;;;;;;5054155;28;20025;-37
2020/12/25 06:42:53;;;;;;;18.60;2.67;;;3.60;99.90;;;;;;5048222;28;20039;-38
2020/12/25 06:45:26;;;;;;;21.23;3.05;;;3.90;99.90;;;;;;5045078;28;20382;-37
2020/12/25 06:47:52;;;;;;;17.23;2.58;;;4.10;99.90;;;;;;5042940;28;20073;-37
2020/12/25 06:50:17;;;;;;;14.57;2.38;;;4.20;99.90;;;;;;5043728;28;20458;-37
2020/12/25 06:53:02;;;;;;;18.38;2.85;;;4.30;99.90;;;;;;5049209;28;20108;-37
2020/12/25 06:55:43;;;;;;;14.20;3.00;;;4.20;99.90;;;;;;5054164;28;20025;-37
2020/12/25 06:58:22;;;;;;;30.50;3.45;;;4.30;99.90;;;;;;5052781;28;20029;-37
2020/12/25 07:00:56;;;;;;;19.95;4.25;;;4.30;99.90;;;;;;5044576;28;20046;-37
2020/12/25 07:03:23;;;;;;;16.65;2.72;;;4.30;99.90;;;;;;5053861;28;20057;-36
2020/12/25 07:05:50;;;;;;;17.02;3.15;;;4.20;99.90;;;;;;5051398;28;20032;-37
2020/12/25 07:08:48;;;;;;;19.45;2.53;;;4.30;99.90;;;;;;5047721;28;20477;-38
2020/12/25 07:11:16;;;;;;;23.42;3.00;;;4.20;99.90;;;;;;4972925;28;20042;-38
2020/12/25 07:13:42;;;;;;;28.52;3.40;;;4.20;99.90;;;;;;4967823;28;20531;-38
2020/12/25 07:16:08;;;;;;;27.58;3.20;;;4.20;99.90;;;;;;4952312;29;20127;-37
2020/12/25 07:18:34;;;;;;;17.75;2.83;;;4.30;99.90;;;;;;4930557;29;20350;-37
2020/12/25 07:21:02;;;;;;;17.88;2.15;;;4.30;99.90;;;;;;4953862;28;20186;-38
2020/12/25 07:23:28;;;;;;;19.88;3.40;;;4.30;99.90;;;;;;4959295;28;20034;-38
2020/12/25 07:25:58;;;;;;;19.75;3.85;;;4.30;99.90;;;;;;4958743;28;20035;-38
2020/12/25 07:28:26;;;;;;;15.52;3.83;;;4.30;99.90;;;;;;4956723;28;20495;-38
2020/12/25 07:30:53;;;;;;;12.02;2.80;;;4.30;99.90;;;;;;4948011;28;20133;-38
2020/12/25 07:33:20;;;;;;;28.13;2.83;;;4.40;99.90;;;;;;4952965;28;20147;-38
2020/12/25 07:35:46;;;;;;;32.33;4.32;;;4.40;99.90;;;;;;4951223;29;20417;-38
2020/12/25 07:38:13;;;;;;;21.13;3.05;;;4.40;99.90;;;;;;4952574;28;20034;-37
2020/12/25 07:40:41;;;;;;;24.42;2.70;;;4.50;99.90;;;;;;4950009;29;20044;-38
2020/12/25 07:43:07;;;;;;;17.60;2.35;;;4.60;99.90;;;;;;4939863;28;20035;-37
2020/12/25 07:45:34;;;;;;;22.00;2.30;;;4.60;99.90;;;;;;4951310;29;20082;-37
2020/12/25 07:48:03;;;;;;;20.13;2.63;;;4.60;99.90;;;;;;4980954;28;20037;-37
2020/12/25 07:50:41;;;;;;;13.32;2.50;;;4.70;99.90;;;;;;5031855;28;20042;-37
2020/12/25 07:53:17;;;;;;;26.13;3.88;;;4.70;99.90;;;;;;5029701;28;20099;-37
2020/12/25 07:55:45;;;;;;;31.50;3.03;;;4.70;99.90;;;;;;5011543;28;20039;-37
2020/12/25 07:58:15;;;;;;;13.35;2.88;;;4.70;99.90;;;;;;5025271;28;20101;-37
2020/12/25 08:00:41;;;;;;;19.83;3.15;;;4.80;99.90;;;;;;5030036;28;20390;-37
2020/12/25 08:03:07;;;;;;;22.08;1.98;;;4.80;99.90;;;;;;4998898;28;20033;-37
2020/12/25 08:05:33;;;;;;;23.33;2.60;;;4.70;99.90;;;;;;5031042;28;20080;-37
2020/12/25 08:08:01;;;;;;;12.57;2.13;;;4.60;99.90;;;;;;5028890;28;20046;-37
2020/12/25 08:10:27;;;;;;;9.68;1.58;;;4.60;99.90;;;;;;5013667;28;20040;-38
2020/12/25 08:12:58;;;;;;;10.50;1.77;;;4.80;99.90;;;;;;5032989;28;20037;-38
2020/12/25 08:15:25;;;;;;;4.30;0.90;;;4.60;99.90;;;;;;5048815;28;20120;-38
2020/12/25 08:17:56;;;;;;;11.95;1.48;;;4.50;99.90;;;;;;5053574;28;20031;-38
2020/12/25 08:20:22;;;;;;;10.90;1.48;;;4.60;99.90;;;;;;5051783;28;20059;-37
2020/12/25 08:22:50;;;;;;;14.77;2.13;;;4.50;99.90;;;;;;5034204;28;20087;-38
2020/12/25 08:25:17;;;;;;;19.10;1.65;;;4.40;99.90;;;;;;5026345;28;20109;-37
2020/12/25 08:27:44;;;;;;;27.88;4.18;;;4.30;99.90;;;;;;5048546;28;20028;-38
2020/12/25 08:30:10;;;;;;;26.83;3.15;;;4.40;99.90;;;;;;5052845;28;20032;-38
2020/12/25 08:32:35;;;;;;;19.13;2.88;;;4.50;99.90;;;;;;5052647;28;20041;-38
2020/12/25 08:35:30;;;;;;;21.40;2.60;;;4.70;99.90;;;;;;5021568;28;20090;-37
2020/12/25 08:38:02;;;;;;;24.35;3.70;;;4.80;99.90;;;;;;4928946;29;20533;-38
2020/12/25 08:40:37;;;;;;;16.25;2.42;;;4.90;99.90;;;;;;4932629;29;20074;-38
2020/12/25 08:43:05;;;;;;;10.48;2.00;;;4.90;99.90;;;;;;4920880;29;20044;-38
2020/12/25 08:45:31;;;;;;;20.70;2.47;;;4.80;99.90;;;;;;4932881;29;20036;-38
2020/12/25 08:48:05;;;;;;;14.25;2.53;;;4.70;99.90;;;;;;4916841;29;20083;-37
2020/12/25 08:50:30;;;;;;;11.00;1.90;;;4.70;99.90;;;;;;4932348;29;20044;-38
2020/12/25 08:53:17;;;;;;;16.30;2.30;;;4.70;99.90;;;;;;4933331;29;20039;-36
2020/12/25 08:55:44;;;;;;;16.23;4.00;;;4.70;99.90;;;;;;4938766;29;20039;-37
2020/12/25 08:58:10;;;;;;;13.98;2.25;;;4.70;99.90;;;;;;4928356;29;20036;-36
2020/12/25 09:00:36;;;;;;;20.50;4.05;;;4.70;99.90;;;;;;4926450;29;20091;-37
2020/12/25 09:03:01;;;;;;;12.50;2.00;;;5.20;99.90;;;;;;4932764;29;20032;-36
2020/12/25 09:05:27;;;;;;;39.17;3.83;;;5.30;99.90;;;;;;4928307;29;20036;-36
2020/12/25 09:07:53;;;;;;;13.18;1.83;;;5.10;99.90;;;;;;4932565;29;20044;-36
2020/12/25 09:10:18;;;;;;;15.07;2.95;;;5.20;99.90;;;;;;4930796;29;20221;-41
2020/12/25 09:12:44;;;;;;;13.48;2.58;;;5.20;99.90;;;;;;4937063;29;20052;-36
2020/12/25 09:15:10;;;;;;;17.85;2.28;;;5.20;99.90;;;;;;5034450;28;20469;-36
2020/12/25 09:17:36;;;;;;;18.50;1.85;;;5.20;99.90;;;;;;5041376;28;20029;-36
2020/12/25 09:20:02;;;;;;;16.30;2.90;;;5.30;99.90;;;;;;5049773;28;20032;-35
2020/12/25 09:22:28;;;;;;;12.88;2.70;;;5.40;99.90;;;;;;5050663;28;20041;-35
2020/12/25 09:24:53;;;;;;;19.95;2.58;;;5.40;99.90;;;;;;5030258;28;20517;-47
2020/12/25 09:27:19;;;;;;;25.63;3.13;;;5.40;99.90;;;;;;5050781;28;20037;-47
2020/12/25 09:29:45;;;;;;;25.52;3.45;;;5.70;99.90;;;;;;5031509;28;20024;-47
2020/12/25 09:32:10;;;;;;;21.73;2.20;;;6.20;99.90;;;;;;5045398;28;20076;-35
2020/12/25 09:34:36;;;;;;;18.30;4.90;;;6.60;99.90;;;;;;5050599;28;20111;-41
2020/12/25 09:37:02;;;;;;;18.33;6.78;;;6.90;99.90;;;;;;5049995;28;20489;-43
2020/12/25 09:39:28;;;;;;;20.98;9.48;;;7.00;99.90;;;;;;5049977;28;20087;-43
2020/12/25 09:41:53;;;;;;;159.30;117.22;;;6.90;99.90;;;;;;5050331;28;20029;-39
2020/12/25 09:44:56;;;;;;;88.72;67.05;;;7.00;99.90;;;;;;5119002;27;20492;-42
2020/12/25 09:47:22;;;;;;;19.30;11.40;;;7.30;99.90;;;;;;5123505;28;20059;-42
2020/12/25 09:49:48;;;;;;;20.48;12.65;;;7.60;99.90;;;;;;5118945;28;20200;-41
2020/12/25 09:52:15;;;;;;;20.65;18.13;;;7.50;99.90;;;;;;5124834;27;20032;-43
2020/12/25 09:54:41;;;;;;;43.53;32.25;;;7.80;99.90;;;;;;5122554;27;20052;-36
2020/12/25 09:57:06;;;;;;;32.85;16.55;;;7.70;99.90;;;;;;5124332;27;20034;-36
2020/12/25 09:59:32;;;;;;;32.75;14.77;;;7.70;99.90;;;;;;5125247;28;20019;-37
2020/12/25 10:01:58;;;;;;;21.13;9.98;;;7.30;99.90;;;;;;5127953;27;20027;-38
2020/12/25 10:04:24;;;;;;;48.83;33.17;;;7.30;99.90;;;;;;5122480;28;20035;-42
2020/12/25 10:06:49;;;;;;;28.15;15.95;;;7.70;99.90;;;;;;5125968;28;20322;-42
2020/12/25 10:09:15;;;;;;;16.95;3.60;;;7.80;99.90;;;;;;5127409;28;20078;-44
2020/12/25 10:11:41;;;;;;;16.42;3.97;;;8.40;99.90;;;;;;5128313;28;20115;-38
2020/12/25 10:14:06;;;;;;;26.02;2.63;;;8.70;99.90;;;;;;5127853;28;20043;-40
2020/12/25 10:16:34;;;;;;;19.70;8.43;;;8.70;99.90;;;;;;5123993;28;20030;-38
2020/12/25 10:19:00;;;;;;;13.90;4.72;;;8.90;99.90;;;;;;5113808;28;20026;-36
2020/12/25 10:21:25;;;;;;;14.10;2.95;;;9.00;99.90;;;;;;5126401;27;20094;-33
2020/12/25 10:23:51;;;;;;;15.02;3.40;;;8.50;99.90;;;;;;5126118;28;20043;-34
2020/12/25 10:26:16;;;;;;;24.30;7.47;;;8.50;99.90;;;;;;5119861;28;20469;-46
2020/12/25 10:28:42;;;;;;;25.08;9.00;;;8.90;99.90;;;;;;5108926;28;20119;-35
2020/12/25 10:31:09;;;;;;;28.38;10.02;;;9.40;99.90;;;;;;5123213;28;20020;-46
2020/12/25 10:33:37;;;;;;;27.92;9.93;;;9.60;99.90;;;;;;5115597;28;20035;-43
2020/12/25 10:36:03;;;;;;;21.55;12.48;;;9.50;99.90;;;;;;5124886;28;20058;-43
2020/12/25 10:38:28;;;;;;;27.42;13.35;;;9.60;99.90;;;;;;5123843;28;20032;-34
2020/12/25 10:40:54;;;;;;;22.80;7.80;;;10.20;99.90;;;;;;5127359;27;20579;-44
2020/12/25 10:43:20;;;;;;;14.00;3.25;;;10.10;99.90;;;;;;5114787;28;20047;-45
2020/12/25 10:45:46;;;;;;;17.38;3.17;;;10.90;99.90;;;;;;5121687;27;20044;-33
2020/12/25 10:48:12;;;;;;;12.98;4.22;;;11.80;99.90;;;;;;5127840;28;20510;-41
2020/12/25 10:50:38;;;;;;;9.02;2.58;;;14.20;99.90;;;;;;5118767;28;20038;-48
2020/12/25 10:53:03;;;;;;;14.95;4.00;;;15.50;99.90;;;;;;5108998;28;20036;-36
2020/12/25 10:55:29;;;;;;;11.00;2.10;;;16.70;99.90;;;;;;5114169;27;20133;-36
2020/12/25 10:57:55;;;;;;;14.45;2.70;;;14.50;99.90;;;;;;5106401;27;20425;-37
2020/12/25 11:00:21;;;;;;;12.85;4.90;;;13.50;99.90;;;;;;5115885;27;20028;-33
2020/12/25 11:02:46;;;;;;;12.23;2.97;;;13.00;99.90;;;;;;5110712;28;20035;-36
2020/12/25 11:05:16;;;;;;;12.13;3.80;;;12.90;99.90;;;;;;5102056;27;20028;-33
2020/12/25 11:07:43;;;;;;;13.98;4.80;;;13.60;99.90;;;;;;5108603;28;20032;-38
2020/12/25 11:10:08;;;;;;;10.40;3.47;;;16.30;99.90;;;;;;5108242;28;20034;-36
2020/12/25 11:12:34;;;;;;;9.25;2.17;;;15.00;99.90;;;;;;5110578;28;20459;-36
2020/12/25 11:15:00;;;;;;;14.82;2.42;;;12.60;99.90;;;;;;5110199;28;20034;-35
2020/12/25 11:17:25;;;;;;;15.50;3.47;;;11.70;99.90;;;;;;5111823;28;20517;-34
2020/12/25 11:19:55;;;;;;;14.32;2.60;;;11.00;99.90;;;;;;5113156;28;20494;-36
2020/12/25 11:22:24;;;;;;;9.27;1.90;;;9.70;99.90;;;;;;5104000;28;20035;-34
2020/12/25 11:24:50;;;;;;;6.18;1.00;;;8.40;99.90;;;;;;5107296;28;20084;-32
2020/12/25 11:27:16;;;;;;;9.57;1.02;;;8.90;99.90;;;;;;5100850;28;20036;-45
2020/12/25 11:29:42;;;;;;;7.18;1.33;;;9.30;99.90;;;;;;5107107;28;20042;-45
2020/12/25 11:32:07;;;;;;;7.55;1.70;;;10.60;99.90;;;;;;5105589;28;20039;-33
2020/12/25 11:34:33;;;;;;;11.60;5.20;;;10.30;99.90;;;;;;5109640;28;20414;-35
2020/12/25 11:36:59;;;;;;;11.40;2.60;;;9.70;99.90;;;;;;5114049;27;20451;-37
2020/12/25 11:39:24;;;;;;;10.80;2.00;;;9.10;99.90;;;;;;5114061;28;20023;-47
2020/12/25 11:41:50;;;;;;;6.55;1.85;;;8.40;99.90;;;;;;5104149;28;20066;-42
2020/12/25 11:44:16;;;;;;;8.32;2.08;;;8.00;99.90;;;;;;5105188;28;20135;-46
2020/12/25 11:46:42;;;;;;;10.73;1.70;;;7.60;99.90;;;;;;5110715;28;20023;-46
2020/12/25 11:49:08;;;;;;;8.05;2.05;;;7.90;99.90;;;;;;5105701;28;20031;-45
2020/12/25 11:51:35;;;;;;;11.27;3.58;;;8.00;99.90;;;;;;5110132;28;20151;-39
2020/12/25 11:54:00;;;;;;;63.38;46.75;;;8.20;99.90;;;;;;5102185;28;20023;-45
2020/12/25 11:56:31;;;;;;;10.88;2.20;;;8.70;99.90;;;;;;5101753;28;20032;-43
2020/12/25 11:58:58;;;;;;;11.70;1.98;;;8.20;99.90;;;;;;5102061;28;20027;-47
2020/12/25 12:01:24;;;;;;;14.93;2.88;;;9.60;99.90;;;;;;5107337;28;20043;-45
2020/12/25 12:03:50;;;;;;;24.15;4.70;;;9.50;99.90;;;;;;5110899;27;20545;-35
2020/12/25 12:06:20;;;;;;;14.93;2.45;;;9.60;99.90;;;;;;5104401;27;20357;-44
2020/12/25 12:08:46;;;;;;;18.02;2.65;;;11.00;99.90;;;;;;5111659;28;20365;-44
2020/12/25 12:11:12;;;;;;;10.85;1.95;;;9.40;99.90;;;;;;5111970;28;20031;-45
2020/12/25 12:13:38;;;;;;;8.60;1.92;;;9.10;99.90;;;;;;5108190;28;20043;-42
2020/12/25 12:16:03;;;;;;;23.02;5.05;;;8.60;99.90;;;;;;5094404;28;20036;-37
2020/12/25 12:18:29;;;;;;;21.65;4.07;;;8.60;99.90;;;;;;5102397;28;20028;-44
2020/12/25 12:20:54;;;;;;;15.75;2.45;;;8.80;99.90;;;;;;5100702;28;20038;-45
2020/12/25 12:23:20;;;;;;;14.13;3.00;;;9.20;99.90;;;;;;5085027;28;20044;-45
2020/12/25 12:25:46;;;;;;;12.82;4.68;;;9.20;99.90;;;;;;5109589;27;20472;-44
2020/12/25 12:28:11;;;;;;;14.65;3.58;;;8.90;99.90;;;;;;5106058;28;20028;-46
2020/12/25 12:30:37;;;;;;;15.43;2.22;;;8.60;99.90;;;;;;5109166;27;20031;-45
2020/12/25 12:33:03;;;;;;;18.25;3.05;;;9.00;99.90;;;;;;5110153;27;20059;-43
2020/12/25 12:35:29;;;;;;;14.18;2.88;;;9.30;99.90;;;;;;5110735;28;20340;-46
2020/12/25 12:37:55;;;;;;;15.48;2.90;;;8.60;99.90;;;;;;5110131;28;20023;-45
2020/12/25 12:40:20;;;;;;;8.18;1.58;;;8.70;99.90;;;;;;5111795;28;20042;-42
2020/12/25 12:42:46;;;;;;;16.25;2.75;;;9.50;99.90;;;;;;5102303;28;20028;-46
2020/12/25 12:45:12;;;;;;;16.08;2.15;;;9.10;99.90;;;;;;5106530;28;20127;-45
2020/12/25 12:47:38;;;;;;;9.65;1.75;;;8.40;99.90;;;;;;5108621;28;20078;-45